Time;durP1;ratioP1;P1;durP2;ratioP2;P2;SDS_P1;SDS_P2;PMS_P1;PMS_P2;Temp;Humidity;BMP_temperature;BMP_pressure;BME280_temperature;BME280_humidity;BME280_pressure;Samples;Min_cycle;Max_cycle;Signal;HPM_P1;HPM_P2
2022/02/14 00:00:55;;;;;;;26.10;6.60;;;;;;;3.53;100.00;97497.31;5005570;28;20045;-56
2022/02/14 00:03:21;;;;;;;22.02;6.07;;;;;;;3.52;100.00;97491.31;5006769;28;20376;-57
2022/02/14 00:05:47;;;;;;;27.95;6.82;;;;;;;3.79;100.00;97481.28;5003938;28;20049;-56
2022/02/14 00:08:13;;;;;;;28.38;6.80;;;;;;;3.65;100.00;97477.25;5003281;28;20018;-56
2022/02/14 00:10:38;;;;;;;25.60;6.28;;;;;;;3.83;100.00;97477.75;5005034;28;20044;-56
2022/02/14 00:13:04;;;;;;;22.13;6.13;;;;;;;3.65;100.00;97479.00;5004573;28;20107;-56
2022/02/14 00:15:29;;;;;;;24.30;6.35;;;;;;;3.48;100.00;97471.63;5005871;28;20049;-56
2022/02/14 00:17:54;;;;;;;27.25;6.53;;;;;;;3.61;100.00;97473.06;5005588;28;20026;-57
2022/02/14 00:20:20;;;;;;;33.22;8.07;;;;;;;2.74;100.00;97473.09;5006365;28;20032;-60
2022/02/14 00:22:46;;;;;;;21.23;6.13;;;;;;;3.25;100.00;97464.38;5006367;28;20022;-56
2022/02/14 00:25:13;;;;;;;25.92;6.10;;;;;;;3.34;100.00;97468.50;5004581;28;20499;-59
2022/02/14 00:27:40;;;;;;;22.98;6.85;;;;;;;3.34;100.00;97463.34;5006588;28;20034;-58
2022/02/14 00:30:06;;;;;;;25.65;6.80;;;;;;;3.14;100.00;97462.00;5007387;28;20022;-59
2022/02/14 00:32:32;;;;;;;24.52;6.70;;;;;;;3.32;100.00;97459.94;5006313;28;20041;-58
2022/02/14 00:34:57;;;;;;;26.35;6.95;;;;;;;3.15;100.00;97460.28;5005029;28;20040;-59
2022/02/14 00:37:22;;;;;;;19.58;6.00;;;;;;;2.87;100.00;97456.53;5005252;28;20029;-60
2022/02/14 00:39:48;;;;;;;28.80;7.75;;;;;;;2.74;100.00;97449.91;5005958;28;20559;-58
2022/02/14 00:42:14;;;;;;;23.90;6.53;;;;;;;3.18;100.00;97453.34;5004530;28;20748;-58
2022/02/14 00:44:40;;;;;;;24.42;6.20;;;;;;;3.19;100.00;97449.88;5004592;28;20570;-58
2022/02/14 00:47:06;;;;;;;32.33;7.85;;;;;;;2.99;100.00;97452.00;5006162;28;20707;-58
2022/02/14 00:49:31;;;;;;;23.00;6.47;;;;;;;3.28;100.00;97447.09;5006421;28;21001;-57
2022/02/14 00:51:57;;;;;;;23.50;6.07;;;;;;;3.41;100.00;97442.53;5005191;28;20971;-56
2022/02/14 00:54:22;;;;;;;23.10;6.10;;;;;;;3.34;100.00;97447.88;5005062;28;20502;-57
2022/02/14 00:56:48;;;;;;;26.95;6.47;;;;;;;3.12;100.00;97443.16;5004556;28;20034;-56
2022/02/14 00:59:13;;;;;;;24.77;6.47;;;;;;;3.10;100.00;97437.19;5004537;28;20028;-56
2022/02/14 01:01:38;;;;;;;23.45;6.53;;;;;;;2.86;100.00;97444.50;5006481;28;20061;-58
2022/02/14 01:04:04;;;;;;;25.08;6.63;;;;;;;2.96;100.00;97442.63;5006538;28;20120;-57
2022/02/14 01:06:30;;;;;;;22.42;5.95;;;;;;;3.34;100.00;97446.13;5003377;28;20045;-56
2022/02/14 01:08:55;;;;;;;25.27;6.25;;;;;;;3.48;100.00;97441.53;5009535;28;20537;-58
2022/02/14 01:11:22;;;;;;;22.40;6.05;;;;;;;3.38;100.00;97445.22;5008038;28;20040;-56
2022/02/14 01:13:47;;;;;;;28.80;7.07;;;;;;;3.01;100.00;97450.25;5009818;28;20036;-57
2022/02/14 01:16:12;;;;;;;30.38;7.03;;;;;;;3.03;100.00;97448.47;5008239;28;20033;-57
2022/02/14 01:18:38;;;;;;;24.52;6.60;;;;;;;2.82;100.00;97435.16;5006597;28;20576;-58
2022/02/14 01:21:03;;;;;;;22.13;6.30;;;;;;;2.92;100.00;97442.69;5008866;28;20108;-58
2022/02/14 01:23:29;;;;;;;29.55;6.35;;;;;;;3.28;100.00;97433.38;5010353;28;20030;-56
2022/02/14 01:25:54;;;;;;;26.08;6.50;;;;;;;2.65;100.00;97437.19;5007716;28;20052;-57
2022/02/14 01:28:19;;;;;;;22.63;6.15;;;;;;;3.44;100.00;97436.50;5005757;28;20121;-57
2022/02/14 01:30:45;;;;;;;23.10;5.80;;;;;;;3.12;100.00;97432.00;5008653;28;20048;-57
2022/02/14 01:33:10;;;;;;;26.00;6.60;;;;;;;2.79;100.00;97424.06;5008490;28;20627;-57
2022/02/14 01:35:35;;;;;;;23.55;6.30;;;;;;;2.48;100.00;97419.47;5009614;28;20041;-56
2022/02/14 01:38:02;;;;;;;21.05;5.65;;;;;;;2.72;100.00;97420.75;5009819;28;20072;-60
2022/02/14 01:40:27;;;;;;;23.83;6.40;;;;;;;2.86;100.00;97417.91;5007846;28;20081;-57
2022/02/14 01:42:53;;;;;;;26.38;6.70;;;;;;;3.03;100.00;97412.41;5007679;28;20471;-58
2022/02/14 01:45:18;;;;;;;22.23;6.03;;;;;;;3.12;100.00;97412.22;5011133;28;21062;-58
2022/02/14 01:47:43;;;;;;;25.00;5.93;;;;;;;3.02;100.00;97405.59;5006119;28;20464;-57
2022/02/14 01:50:12;;;;;;;19.80;5.13;;;;;;;3.14;100.00;97404.47;5008762;28;20068;-57
2022/02/14 01:52:39;;;;;;;23.58;6.68;;;;;;;3.24;100.00;97404.25;5006823;28;20036;-57
2022/02/14 01:55:06;;;;;;;25.15;5.97;;;;;;;2.79;100.00;97408.59;5007427;28;20115;-58
2022/02/14 01:57:33;;;;;;;21.77;5.95;;;;;;;2.44;100.00;97392.09;5007464;28;20061;-57
2022/02/14 01:59:58;;;;;;;24.35;5.90;;;;;;;2.33;100.00;97389.69;5009503;28;20033;-57
2022/02/14 02:02:24;;;;;;;33.67;6.43;;;;;;;2.07;100.00;97393.56;5007100;28;20064;-56
2022/02/14 02:04:50;;;;;;;26.70;6.18;;;;;;;2.44;100.00;97392.94;5007558;28;20091;-58
2022/02/14 02:07:16;;;;;;;24.83;6.28;;;;;;;2.25;100.00;97396.72;5008561;28;20893;-58
2022/02/14 02:09:45;;;;;;;23.38;5.82;;;;;;;2.18;100.00;97400.28;5010569;28;20061;-57
2022/02/14 02:12:24;;;;;;;28.55;6.55;;;;;;;1.89;100.00;97388.75;5008766;28;20113;-57
2022/02/14 02:14:54;;;;;;;26.83;6.57;;;;;;;2.00;100.00;97383.41;5007476;28;20638;-57
2022/02/14 02:17:21;;;;;;;24.33;6.22;;;;;;;2.19;100.00;97377.09;5006221;28;20555;-57
2022/02/14 02:19:47;;;;;;;24.52;5.63;;;;;;;2.24;100.00;97382.16;5008014;28;20033;-57
2022/02/14 02:22:12;;;;;;;24.42;6.13;;;;;;;2.12;100.00;97367.78;5008854;28;20060;-57
2022/02/14 02:24:46;;;;;;;25.15;6.10;;;;;;;1.82;100.00;97369.13;5009749;28;20036;-56
2022/02/14 02:27:12;;;;;;;23.40;5.65;;;;;;;1.56;100.00;97374.69;5007694;28;20124;-57
2022/02/14 02:29:37;;;;;;;24.70;6.05;;;;;;;1.90;100.00;97365.56;5009285;28;20104;-58
2022/02/14 02:32:05;;;;;;;26.90;6.22;;;;;;;2.23;100.00;97357.31;5007975;28;20042;-57
2022/02/14 02:34:31;;;;;;;23.80;6.22;;;;;;;2.07;100.00;97356.72;5008067;28;20732;-57
2022/02/14 02:36:58;;;;;;;21.25;5.90;;;;;;;2.01;100.00;97352.53;5007809;28;20041;-57
2022/02/14 02:39:24;;;;;;;33.00;7.13;;;;;;;1.96;100.00;97349.19;5006498;28;20113;-57
2022/02/14 02:41:51;;;;;;;25.45;6.38;;;;;;;1.94;100.00;97366.38;5006586;28;20128;-57
2022/02/14 02:44:17;;;;;;;24.65;6.60;;;;;;;0.87;100.00;97358.53;5007695;28;20129;-58
2022/02/14 02:46:43;;;;;;;29.85;7.13;;;;;;;0.58;100.00;97349.44;5008898;28;20067;-58
2022/02/14 02:49:09;;;;;;;19.83;6.00;;;;;;;1.15;100.00;97343.59;5008047;28;20025;-57
2022/02/14 02:51:43;;;;;;;37.15;7.82;;;;;;;1.21;100.00;97342.66;5007283;28;20128;-57
2022/02/14 02:54:09;;;;;;;24.98;6.13;;;;;;;1.50;100.00;97345.63;5016949;28;20092;-57
2022/02/14 02:56:36;;;;;;;28.67;6.78;;;;;;;1.38;100.00;97330.44;5006403;28;20041;-57
2022/02/14 02:59:03;;;;;;;27.75;6.07;;;;;;;1.91;100.00;97335.56;5006932;28;20550;-56
2022/02/14 03:01:28;;;;;;;28.50;6.70;;;;;;;1.69;100.00;97325.66;5008940;28;20092;-57
2022/02/14 03:03:54;;;;;;;29.13;6.40;;;;;;;1.95;100.00;97332.06;5006082;28;20033;-57
2022/02/14 03:06:20;;;;;;;24.25;5.70;;;;;;;2.06;100.00;97325.00;5006375;28;20069;-58
2022/02/14 03:08:46;;;;;;;26.33;6.85;;;;;;;2.15;100.00;97333.44;5007136;28;20022;-58
2022/02/14 03:11:12;;;;;;;25.27;6.30;;;;;;;2.16;100.00;97325.69;5008577;28;20033;-58
2022/02/14 03:13:38;;;;;;;25.00;6.60;;;;;;;2.09;100.00;97322.38;5006194;28;20025;-58
2022/02/14 03:16:04;;;;;;;24.25;6.43;;;;;;;2.19;100.00;97319.63;5005593;28;20053;-57
2022/02/14 03:18:29;;;;;;;27.58;5.80;;;;;;;2.92;100.00;97314.72;5009318;28;20171;-56
2022/02/14 03:20:54;;;;;;;29.13;7.05;;;;;;;2.41;100.00;97308.06;5006023;28;20033;-58
2022/02/14 03:23:20;;;;;;;20.65;5.35;;;;;;;3.04;100.00;97305.91;5007271;28;20042;-56
2022/02/14 03:25:45;;;;;;;24.30;6.22;;;;;;;2.61;100.00;97301.66;5006718;28;20042;-57
2022/02/14 03:28:10;;;;;;;27.05;6.68;;;;;;;3.09;100.00;97304.09;5008872;28;20028;-57
2022/02/14 03:30:36;;;;;;;20.02;6.10;;;;;;;2.65;100.00;97300.75;5005739;28;20826;-58
2022/02/14 03:33:01;;;;;;;25.23;6.40;;;;;;;3.53;100.00;97307.38;5007476;28;20755;-58
2022/02/14 03:35:26;;;;;;;25.17;6.60;;;;;;;3.28;100.00;97304.50;5006244;28;20038;-58
2022/02/14 03:37:52;;;;;;;26.40;6.35;;;;;;;3.02;100.00;97289.66;5008900;28;20025;-57
2022/02/14 03:40:17;;;;;;;24.10;5.88;;;;;;;3.41;100.00;97297.34;5005708;28;20100;-58
2022/02/14 03:42:42;;;;;;;21.58;5.90;;;;;;;3.55;100.00;97297.84;5007444;28;20054;-57
2022/02/14 03:45:08;;;;;;;25.40;6.13;;;;;;;2.85;100.00;97283.13;5003477;28;20025;-56
2022/02/14 03:47:34;;;;;;;24.42;6.68;;;;;;;3.47;100.00;97268.81;5005567;28;20085;-58
2022/02/14 03:49:59;;;;;;;23.00;5.97;;;;;;;3.48;100.00;97276.53;5006169;28;20030;-56
2022/02/14 03:52:24;;;;;;;24.33;6.45;;;;;;;3.89;100.00;97270.38;5006488;28;20088;-57
2022/02/14 03:54:50;;;;;;;27.63;7.00;;;;;;;3.89;100.00;97271.22;5007157;28;20551;-57
2022/02/14 03:57:15;;;;;;;23.70;6.10;;;;;;;3.83;100.00;97261.06;5007589;28;20267;-58
2022/02/14 03:59:41;;;;;;;24.60;6.03;;;;;;;3.87;100.00;97257.50;5007330;28;20018;-58
2022/02/14 04:02:06;;;;;;;16.48;4.97;;;;;;;4.09;100.00;97256.94;5006943;28;20077;-57
2022/02/14 04:04:32;;;;;;;20.67;6.05;;;;;;;4.12;100.00;97262.88;5004808;28;20702;-57
2022/02/14 04:06:57;;;;;;;24.73;6.35;;;;;;;4.27;100.00;97260.78;5005150;28;20037;-58
2022/02/14 04:09:22;;;;;;;25.13;6.40;;;;;;;4.18;100.00;97256.69;5006516;28;20056;-58
2022/02/14 04:11:48;;;;;;;23.67;6.32;;;;;;;4.23;100.00;97249.69;5004439;28;20381;-58
2022/02/14 04:14:13;;;;;;;22.45;5.88;;;;;;;4.11;100.00;97252.59;5006497;28;20099;-58
2022/02/14 04:16:38;;;;;;;21.77;6.03;;;;;;;4.27;100.00;97245.28;5003078;28;20554;-56
2022/02/14 04:19:04;;;;;;;17.60;5.75;;;;;;;4.35;100.00;97254.47;5004763;28;20021;-57
2022/02/14 04:21:29;;;;;;;27.13;7.07;;;;;;;4.35;100.00;97244.16;5005450;28;20081;-57
2022/02/14 04:23:55;;;;;;;21.15;5.88;;;;;;;4.58;100.00;97251.25;5005725;28;20049;-57
2022/02/14 04:26:20;;;;;;;21.85;6.07;;;;;;;4.47;100.00;97242.09;5005329;28;20144;-58
2022/02/14 04:28:46;;;;;;;25.88;6.32;;;;;;;4.67;100.00;97244.97;5008833;28;20032;-58
2022/02/14 04:31:11;;;;;;;21.95;6.30;;;;;;;4.64;100.00;97229.56;5003890;28;20095;-57
2022/02/14 04:33:37;;;;;;;20.25;5.97;;;;;;;4.59;100.00;97234.84;5005822;28;20083;-57
2022/02/14 04:36:02;;;;;;;23.80;6.20;;;;;;;4.67;100.00;97242.41;5005000;28;20049;-58
2022/02/14 04:38:28;;;;;;;25.35;6.40;;;;;;;4.53;100.00;97237.63;5005489;28;20121;-57
2022/02/14 04:40:53;;;;;;;25.63;6.25;;;;;;;4.43;100.00;97237.06;5004500;28;20063;-59
2022/02/14 04:43:18;;;;;;;20.17;5.57;;;;;;;4.81;100.00;97229.06;5007879;28;20034;-59
2022/02/14 04:45:44;;;;;;;22.83;6.40;;;;;;;4.66;100.00;97238.09;5010523;28;20574;-57
2022/02/14 04:48:09;;;;;;;18.77;5.88;;;;;;;4.54;100.00;97234.16;5008998;28;20132;-58
2022/02/14 04:50:34;;;;;;;23.05;6.10;;;;;;;4.77;100.00;97241.22;5009295;28;20053;-59
2022/02/14 04:53:00;;;;;;;19.67;5.07;;;;;;;5.02;100.00;97237.91;5008561;28;20026;-59
2022/02/14 04:55:25;;;;;;;22.77;6.00;;;;;;;4.55;100.00;97229.84;5008814;28;20507;-58
2022/02/14 04:57:53;;;;;;;19.08;5.43;;;;;;;4.71;100.00;97225.06;5010468;28;20053;-59
2022/02/14 05:00:19;;;;;;;21.52;6.13;;;;;;;4.59;100.00;97234.00;5009789;28;20103;-59
2022/02/14 05:02:45;;;;;;;23.00;6.50;;;;;;;4.54;100.00;97233.28;5010470;28;20053;-59
2022/02/14 05:05:11;;;;;;;23.27;6.03;;;;;;;4.50;100.00;97226.53;5007706;28;20108;-59
2022/02/14 05:07:36;;;;;;;25.75;6.32;;;;;;;4.42;100.00;97213.84;5010026;28;20132;-59
2022/02/14 05:10:02;;;;;;;22.50;5.70;;;;;;;4.55;100.00;97224.66;5007495;28;20099;-59
2022/02/14 05:12:27;;;;;;;22.33;5.72;;;;;;;4.51;100.00;97220.50;5007852;28;20038;-59
2022/02/14 05:14:53;;;;;;;25.85;6.28;;;;;;;4.43;100.00;97221.56;5009053;28;20066;-58
2022/02/14 05:17:18;;;;;;;19.77;5.57;;;;;;;4.60;100.00;97227.97;5007683;28;20037;-56
2022/02/14 05:19:43;;;;;;;26.27;6.65;;;;;;;4.59;100.00;97221.09;5010389;28;20637;-56
2022/02/14 05:22:10;;;;;;;22.75;6.15;;;;;;;4.69;100.00;97232.00;5010727;28;20865;-59
2022/02/14 05:24:35;;;;;;;25.95;5.80;;;;;;;4.46;100.00;97219.78;5009854;28;20107;-56
2022/02/14 05:27:01;;;;;;;23.08;5.63;;;;;;;4.18;100.00;97225.72;5007821;28;20720;-57
2022/02/14 05:29:26;;;;;;;25.00;5.85;;;;;;;4.41;100.00;97227.63;5010208;28;20040;-56
2022/02/14 05:31:52;;;;;;;20.83;5.78;;;;;;;4.20;100.00;97235.09;5007442;28;20042;-57
2022/02/14 05:34:17;;;;;;;21.38;5.68;;;;;;;4.53;100.00;97227.28;4991869;28;20049;-56
2022/02/14 05:36:42;;;;;;;23.65;6.13;;;;;;;4.46;100.00;97230.09;5009205;28;20118;-57
2022/02/14 05:39:08;;;;;;;25.70;6.10;;;;;;;4.40;100.00;97226.78;5007412;28;20853;-56
2022/02/14 05:41:34;;;;;;;21.65;5.82;;;;;;;4.37;100.00;97226.03;5006993;28;20141;-56
2022/02/14 05:44:01;;;;;;;22.77;5.90;;;;;;;4.39;100.00;97226.84;5009789;28;20026;-57
2022/02/14 05:46:27;;;;;;;21.58;5.70;;;;;;;4.39;100.00;97221.69;5007911;28;20042;-55
2022/02/14 05:48:52;;;;;;;20.77;5.22;;;;;;;4.41;100.00;97220.75;5009920;28;20028;-57
2022/02/14 05:51:18;;;;;;;21.92;5.95;;;;;;;4.42;100.00;97227.59;5006004;28;20042;-59
2022/02/14 05:53:44;;;;;;;22.13;6.22;;;;;;;4.25;100.00;97233.25;5007113;28;20036;-57
2022/02/14 05:56:09;;;;;;;20.63;5.30;;;;;;;4.38;100.00;97244.06;5007258;28;20464;-58
2022/02/14 05:58:35;;;;;;;23.40;5.68;;;;;;;4.11;100.00;97227.63;5008120;28;20448;-59
2022/02/14 06:01:01;;;;;;;20.27;5.55;;;;;;;3.98;100.00;97223.69;5005170;28;20644;-59
2022/02/14 06:03:26;;;;;;;25.20;5.70;;;;;;;4.41;100.00;97225.94;5014644;28;20036;-59
2022/02/14 06:05:52;;;;;;;19.08;4.95;;;;;;;4.07;100.00;97232.91;5012756;28;20065;-58
2022/02/14 06:08:17;;;;;;;21.98;4.90;;;;;;;4.23;100.00;97237.63;5010645;28;20030;-59
2022/02/14 06:10:43;;;;;;;15.82;5.03;;;;;;;4.23;100.00;97237.63;5014182;28;20037;-59
2022/02/14 06:13:08;;;;;;;15.38;4.70;;;;;;;4.31;100.00;97241.72;5011512;28;20033;-60
2022/02/14 06:15:34;;;;;;;24.52;5.60;;;;;;;4.37;100.00;97238.94;5009854;28;20030;-58
2022/02/14 06:17:59;;;;;;;17.55;4.90;;;;;;;4.52;100.00;97235.06;5010478;28;20065;-59
2022/02/14 06:20:25;;;;;;;18.00;5.32;;;;;;;4.52;100.00;97241.13;5011485;28;20025;-59
2022/02/14 06:22:51;;;;;;;19.52;5.55;;;;;;;4.36;100.00;97245.03;5011448;28;20062;-59
2022/02/14 06:25:16;;;;;;;21.88;5.65;;;;;;;4.45;100.00;97234.44;5018709;28;20476;-58
2022/02/14 06:27:41;;;;;;;18.85;5.03;;;;;;;4.40;100.00;97244.88;5011180;28;20088;-58
2022/02/14 06:30:07;;;;;;;18.45;5.40;;;;;;;4.26;100.00;97241.81;5010270;28;20141;-59
2022/02/14 06:32:33;;;;;;;18.75;5.25;;;;;;;4.62;100.00;97241.69;5013019;28;20028;-59
2022/02/14 06:34:59;;;;;;;19.23;5.25;;;;;;;4.46;100.00;97246.44;5010839;28;20034;-59
2022/02/14 06:37:24;;;;;;;19.05;5.50;;;;;;;4.31;100.00;97246.88;5011320;28;20041;-60
2022/02/14 06:39:50;;;;;;;21.92;5.22;;;;;;;4.50;100.00;97242.03;5011295;28;20024;-58
2022/02/14 06:42:16;;;;;;;13.90;4.90;;;;;;;4.42;97.46;97248.25;5011115;28;20107;-55
2022/02/14 06:44:41;;;;;;;19.75;5.05;;;;;;;4.26;96.96;97244.41;5011085;28;20456;-58
2022/02/14 06:47:07;;;;;;;18.83;5.38;;;;;;;4.23;99.54;97244.50;5009161;28;20042;-56
2022/02/14 06:49:32;;;;;;;20.67;5.30;;;;;;;4.46;100.00;97245.59;5009308;28;20040;-57
2022/02/14 06:51:58;;;;;;;25.60;6.22;;;;;;;4.17;95.15;97249.81;5007509;28;20037;-57
2022/02/14 06:54:23;;;;;;;16.55;5.28;;;;;;;4.38;100.00;97259.56;5010205;28;20030;-57
2022/02/14 06:56:49;;;;;;;16.48;5.10;;;;;;;4.35;100.00;97251.91;5010132;28;20048;-59
2022/02/14 06:59:14;;;;;;;22.23;6.07;;;;;;;4.57;100.00;97253.88;5010732;28;20099;-57
2022/02/14 07:01:40;;;;;;;19.85;5.45;;;;;;;4.78;100.00;97258.41;5010837;28;20348;-59
2022/02/14 07:04:06;;;;;;;24.45;6.22;;;;;;;4.54;100.00;97254.81;5007781;28;20028;-58
2022/02/14 07:06:31;;;;;;;20.77;5.45;;;;;;;4.45;97.66;97255.09;5008656;28;20050;-57
2022/02/14 07:08:57;;;;;;;20.77;6.22;;;;;;;4.62;90.82;97262.34;5010133;28;20029;-57
2022/02/14 07:11:22;;;;;;;18.55;5.70;;;;;;;4.71;100.00;97256.91;5010655;28;20639;-58
2022/02/14 07:13:48;;;;;;;20.90;5.65;;;;;;;4.56;88.74;97257.38;5011586;28;20486;-58
2022/02/14 07:16:13;;;;;;;20.05;5.45;;;;;;;4.37;87.23;97265.59;5009024;28;20747;-58
2022/02/14 07:18:40;;;;;;;20.10;6.05;;;;;;;4.52;85.10;97253.16;5009870;28;20658;-58
2022/02/14 07:21:05;;;;;;;22.40;5.75;;;;;;;4.90;85.06;97262.38;5010193;28;20045;-59
2022/02/14 07:23:31;;;;;;;20.38;5.45;;;;;;;5.18;100.00;97257.22;5011589;28;20383;-57
2022/02/14 07:25:56;;;;;;;21.63;6.05;;;;;;;5.18;94.71;97251.19;5011028;28;20262;-58
2022/02/14 07:28:21;;;;;;;18.73;5.90;;;;;;;5.32;81.82;97253.34;5011974;28;20082;-59
2022/02/14 07:30:46;;;;;;;22.23;4.97;;;;;;;5.57;100.00;97249.06;5010402;28;20041;-59
2022/02/14 07:33:12;;;;;;;24.05;5.57;;;;;;;5.74;100.00;97245.91;5010922;28;20053;-57
2022/02/14 07:35:37;;;;;;;21.23;5.60;;;;;;;6.31;100.00;97251.72;5008255;28;20124;-59
2022/02/14 07:38:03;;;;;;;25.35;5.68;;;;;;;6.69;100.00;97244.31;5008332;28;20113;-57
2022/02/14 07:40:29;;;;;;;23.90;5.85;;;;;;;6.94;100.00;97251.97;5011276;28;20380;-59
2022/02/14 07:42:55;;;;;;;16.73;4.75;;;;;;;8.28;100.00;97249.09;5010085;28;20143;-57
2022/02/14 07:45:24;;;;;;;23.00;5.22;;;;;;;11.42;100.00;97242.25;5009686;28;20620;-58
2022/02/14 07:47:50;;;;;;;20.40;5.80;;;;;;;12.20;100.00;97242.13;5008902;28;20033;-58
2022/02/14 07:50:16;;;;;;;13.40;4.88;;;;;;;11.89;72.56;97246.50;5008297;28;20075;-58
2022/02/14 07:52:42;;;;;;;17.15;5.47;;;;;;;15.01;71.40;97233.47;5009533;28;20049;-59
2022/02/14 07:55:08;;;;;;;20.30;5.35;;;;;;;14.34;100.00;97242.47;5010033;28;20056;-58
2022/02/14 07:57:33;;;;;;;16.02;5.18;;;;;;;13.56;84.15;97243.25;5011360;28;20246;-59
2022/02/14 08:00:01;;;;;;;13.60;4.97;;;;;;;11.63;50.89;97230.56;5007958;28;20917;-59
2022/02/14 08:02:28;;;;;;;13.32;4.93;;;;;;;11.72;75.58;97240.47;5009012;28;20041;-59
2022/02/14 08:04:53;;;;;;;16.27;5.65;;;;;;;10.67;81.09;97236.78;5011393;28;20033;-58
2022/02/14 08:07:18;;;;;;;14.57;5.00;;;;;;;9.71;100.00;97238.22;5007463;28;20038;-58
2022/02/14 08:09:44;;;;;;;13.60;4.93;;;;;;;9.06;83.88;97228.28;5010166;28;20038;-58
2022/02/14 08:12:11;;;;;;;12.63;4.50;;;;;;;9.00;61.55;97231.19;5006794;28;20044;-59
2022/02/14 08:14:38;;;;;;;22.33;5.10;;;;;;;9.58;100.00;97235.38;5010468;28;20057;-59
2022/02/14 08:17:05;;;;;;;17.63;5.28;;;;;;;10.69;100.00;97238.38;5007291;28;20053;-57
2022/02/14 08:19:30;;;;;;;15.23;5.28;;;;;;;9.20;73.42;97230.25;5012038;28;20036;-59
2022/02/14 08:21:56;;;;;;;16.42;4.93;;;;;;;9.66;100.00;97235.81;5008876;28;20038;-58
2022/02/14 08:24:22;;;;;;;22.10;6.18;;;;;;;10.10;100.00;97240.56;5010259;28;20038;-59
2022/02/14 08:26:48;;;;;;;13.55;4.70;;;;;;;8.98;92.28;97226.06;5008880;28;20125;-58
2022/02/14 08:29:13;;;;;;;17.70;5.25;;;;;;;9.65;100.00;97235.00;5009371;28;20030;-59
2022/02/14 08:31:38;;;;;;;11.43;4.65;;;;;;;8.77;87.84;97229.69;5010875;28;20092;-59
2022/02/14 08:34:04;;;;;;;15.02;5.10;;;;;;;10.17;100.00;97236.72;5011397;28;20065;-59
2022/02/14 08:36:29;;;;;;;13.73;4.60;;;;;;;9.64;99.03;97227.25;5008982;28;20029;-57
2022/02/14 08:38:55;;;;;;;15.20;4.57;;;;;;;9.89;100.00;97216.44;5009771;28;20029;-58
2022/02/14 08:41:21;;;;;;;17.17;5.00;;;;;;;10.18;100.00;97225.38;5007494;28;20515;-59
2022/02/14 08:43:50;;;;;;;13.77;4.72;;;;;;;10.00;84.63;97221.13;5011002;28;20037;-58
2022/02/14 08:46:19;;;;;;;15.60;4.70;;;;;;;10.32;91.20;97222.06;5009496;28;20094;-59
2022/02/14 08:48:45;;;;;;;14.13;4.60;;;;;;;10.45;100.00;97214.44;5010175;28;20029;-58
2022/02/14 08:51:11;;;;;;;16.67;4.53;;;;;;;10.44;74.11;97211.91;5007121;28;20088;-59
2022/02/14 08:53:37;;;;;;;16.55;4.90;;;;;;;10.83;100.00;97216.78;5009362;28;20026;-60
2022/02/14 08:56:07;;;;;;;12.88;3.90;;;;;;;9.37;58.94;97212.06;5009088;28;20082;-58
2022/02/14 08:58:34;;;;;;;11.93;4.70;;;;;;;9.87;68.49;97212.22;5009717;28;20104;-58
2022/02/14 09:01:00;;;;;;;14.18;4.68;;;;;;;11.11;99.36;97203.03;5007936;28;20842;-58
2022/02/14 09:03:26;;;;;;;15.60;4.63;;;;;;;10.83;100.00;97190.69;5008391;28;20033;-58
2022/02/14 09:05:51;;;;;;;14.18;4.13;;;;;;;10.87;99.78;97184.38;5007968;28;20045;-60
2022/02/14 09:08:17;;;;;;;14.70;4.32;;;;;;;11.02;100.00;97187.06;5009756;28;20026;-58
2022/02/14 09:10:42;;;;;;;14.50;4.32;;;;;;;11.92;100.00;97189.69;5009801;28;20532;-57
2022/02/14 09:13:08;;;;;;;10.93;3.63;;;;;;;10.66;54.89;97188.13;5009000;28;20087;-61
2022/02/14 09:15:33;;;;;;;12.40;3.83;;;;;;;11.05;72.32;97186.91;5007032;28;20111;-59
2022/02/14 09:17:58;;;;;;;14.32;4.00;;;;;;;11.45;92.30;97189.84;5010837;28;20415;-59
2022/02/14 09:20:24;;;;;;;12.05;4.15;;;;;;;11.31;78.12;97186.25;5009337;28;20076;-58
2022/02/14 09:22:51;;;;;;;12.98;4.10;;;;;;;11.54;55.27;97181.47;5006882;28;20034;-58
2022/02/14 09:25:17;;;;;;;13.15;3.78;;;;;;;11.15;49.72;97188.03;5010964;28;20558;-59
2022/02/14 09:27:42;;;;;;;11.70;4.00;;;;;;;10.85;55.91;97180.16;5009846;28;20022;-59
2022/02/14 09:30:08;;;;;;;13.63;4.05;;;;;;;10.88;50.35;97190.41;5012760;28;20057;-60
2022/02/14 09:32:34;;;;;;;11.13;3.97;;;;;;;12.69;82.05;97190.28;5010529;28;20511;-58
2022/02/14 09:34:59;;;;;;;17.92;4.57;;;;;;;13.06;100.00;97184.50;5009490;28;20029;-57
2022/02/14 09:37:24;;;;;;;10.43;3.90;;;;;;;11.92;56.00;97178.41;5011461;28;20040;-58
2022/02/14 09:39:50;;;;;;;13.45;3.70;;;;;;;11.08;45.79;97177.13;5014199;28;20030;-58
2022/02/14 09:42:16;;;;;;;12.98;3.60;;;;;;;12.30;78.58;97176.09;5010522;28;20034;-59
2022/02/14 09:44:41;;;;;;;15.10;3.95;;;;;;;13.26;80.09;97180.59;5011534;28;20225;-57
2022/02/14 09:47:07;;;;;;;9.85;3.28;;;;;;;12.56;48.91;97175.44;5011650;28;20045;-58
2022/02/14 09:49:32;;;;;;;12.23;3.72;;;;;;;12.80;57.58;97179.13;5011757;28;20033;-59
2022/02/14 09:51:58;;;;;;;11.50;3.70;;;;;;;13.33;73.93;97181.91;5011618;28;20487;-60
2022/02/14 09:54:25;;;;;;;10.50;3.35;;;;;;;12.39;49.24;97172.09;5013030;28;20105;-59
2022/02/14 09:56:52;;;;;;;12.23;3.75;;;;;;;11.71;42.75;97175.28;5011871;28;20396;-58
2022/02/14 09:59:17;;;;;;;11.65;3.90;;;;;;;14.72;83.52;97181.25;5012513;28;20056;-57
2022/02/14 10:01:44;;;;;;;14.50;3.50;;;;;;;12.81;44.26;97166.88;5010994;28;20489;-57
2022/02/14 10:04:10;;;;;;;9.63;3.38;;;;;;;13.07;48.20;97167.84;5015313;28;20037;-58
2022/02/14 10:06:38;;;;;;;9.77;3.53;;;;;;;13.29;42.66;97162.91;5010584;28;20103;-58
2022/02/14 10:09:12;;;;;;;11.23;3.78;;;;;;;13.64;50.65;97167.63;5011762;28;20095;-57
2022/02/14 10:11:57;;;;;;;10.00;3.55;;;;;;;13.27;43.01;97170.03;5011640;28;20049;-58
2022/02/14 10:14:23;;;;;;;10.73;3.60;;;;;;;13.23;55.33;97168.53;5010191;28;20025;-56
2022/02/14 10:17:07;;;;;;;9.20;3.78;;;;;;;13.32;75.04;97171.53;5011367;28;20424;-58
2022/02/14 10:19:35;;;;;;;12.60;3.80;;;;;;;13.58;84.77;97165.41;5012345;28;20704;-57
2022/02/14 10:22:06;;;;;;;14.27;4.00;;;;;;;13.28;54.03;97166.44;5011219;28;20092;-57
2022/02/14 10:24:37;;;;;;;9.73;3.70;;;;;;;13.13;68.20;97162.22;5011375;28;20030;-56
2022/02/14 10:27:03;;;;;;;9.27;3.80;;;;;;;13.52;68.11;97157.94;5009159;28;20640;-57
2022/02/14 10:29:31;;;;;;;11.45;3.70;;;;;;;13.25;57.31;97166.66;5009677;28;20500;-56
2022/02/14 10:31:58;;;;;;;10.70;3.80;;;;;;;13.14;55.80;97161.28;5010800;28;20388;-57
2022/02/14 10:34:44;;;;;;;10.63;3.70;;;;;;;12.98;55.90;97164.03;5011333;28;20029;-56
2022/02/14 10:37:15;;;;;;;15.32;3.80;;;;;;;13.44;63.74;97161.09;5009906;28;20566;-59
2022/02/14 10:39:42;;;;;;;10.40;3.63;;;;;;;13.60;70.25;97160.06;5011833;28;20072;-59
2022/02/14 10:42:11;;;;;;;11.45;3.83;;;;;;;12.92;46.75;97157.44;5011052;28;20544;-60
2022/02/14 10:47:37;;;;;;;10.82;3.78;;;;;;;13.55;73.24;97157.75;5012936;28;20086;-56
2022/02/14 10:50:07;;;;;;;10.20;3.72;;;;;;;13.17;76.80;97158.44;5011310;28;20037;-56
2022/02/14 10:52:43;;;;;;;11.32;3.85;;;;;;;12.50;50.23;97153.13;5011330;28;20068;-59
2022/02/14 10:55:15;;;;;;;15.10;4.10;;;;;;;13.16;65.14;97143.69;5009325;28;20017;-58
2022/02/14 10:57:43;;;;;;;12.68;3.78;;;;;;;13.32;58.67;97150.56;5010719;28;20658;-56
2022/02/14 11:00:16;;;;;;;9.60;3.60;;;;;;;12.50;61.01;97148.72;5009659;28;20762;-56
2022/02/14 11:02:44;;;;;;;10.88;3.40;;;;;;;12.27;50.24;97154.53;5011983;28;20500;-58
2022/02/14 11:05:15;;;;;;;12.30;4.00;;;;;;;13.30;58.98;97148.88;5011170;28;20522;-58
2022/02/14 11:07:42;;;;;;;12.65;4.03;;;;;;;12.82;48.01;97148.47;5011163;28;20538;-58
2022/02/14 11:10:12;;;;;;;11.32;3.80;;;;;;;13.59;81.41;97138.25;5011075;28;20713;-58
2022/02/14 11:12:39;;;;;;;11.57;3.83;;;;;;;13.92;86.97;97134.31;5012503;28;20033;-58
2022/02/14 11:15:08;;;;;;;9.98;3.85;;;;;;;13.18;48.45;97131.34;5011025;28;20060;-59
2022/02/14 11:17:37;;;;;;;14.43;3.85;;;;;;;13.06;65.73;97137.38;5010012;28;20022;-59
2022/02/14 11:20:06;;;;;;;10.30;3.70;;;;;;;12.87;46.57;97130.69;5008828;28;20033;-59
2022/02/14 11:22:37;;;;;;;11.13;3.92;;;;;;;12.92;63.78;97130.38;5009921;28;20036;-58
2022/02/14 11:25:22;;;;;;;9.70;3.70;;;;;;;13.23;77.44;97136.25;5010351;28;20041;-59